Terminal Aerodrome Forecast
Issued by NWS

Home | Current Version | Previous Version | Text Only | Print | Product List | Glossary On
Versions: 1 2 3 4 5 6 7 8 9 10 11 12 13 14 15 16 17 18 19 20
000
FTUS43 KIND 221219 AAA
TAFLAF
TAF AMD
KLAF 221219Z 2212/2312 07012KT P6SM VCSH OVC010
      TEMPO 2212/2214 3SM -RA BR
     FM221800 07011KT P6SM OVC020
     FM222000 08010KT P6SM BKN015
     FM230300 09009KT P6SM VCSH OVC015
     FM230600 11008KT 5SM RA OVC008
     FM230900 12007KT 3SM RA OVC003
      AMD LTD TO CLD VIS AND WIND TIL 221400=

USA.gov is the U.S. government's official web portal to all federal, state and local government web resources and services.